Southampton, NY

9:47 PM EST on December 21, 2014 (GMT -0500)
Montauk | Change Station
CLOSE
Current Station
Airport
Location: Montauk,
Elevation: 7 ft
Nearby Weather Stations

Elev 7 ft 41.07 °N, 71.92 °W | Updated 53 minutes ago

Mostly Cloudy
Mostly Cloudy
39 °F
Feels Like 34 °F
N
7
Wind Variable Wind from NNE
Gusts 17 mph

Today
High -- | Low -- °F
--% Chance of Precip.
Yesterday
High -- | Low -- °F
Precip. -- in
7:10 AM 4:24 PM
New Moon, 0% visible
Pressure 30.32 in
Visibility -9999.0 miles
Clouds
Windchill 34 °F
Dew Point 35 °F
Humidity 86%
Rainfall 0.11 in
Snow Depth Not available.
UV Not available.
Pollen .10 out of 12
Air Quality Not available.
Flu Activity Not available.
METAR KMTP 220154Z AUTO 03006G15KT 04/02 A3033 RMK AO1 SLP268 T00390017

More Conditions Fewer Conditions

Pressure 30.32 in
Visibility -9999.0 miles
Clouds
Windchill 34 °F
Dew Point 35 °F
Humidity 86%
Rainfall 0.11 in
Snow Depth Not available.
UV Not available.
Pollen .10 out of 12
Air Quality Not available.
Flu Activity Not available.
METAR KMTP 220154Z AUTO 03006G15KT 04/02 A3033 RMK AO1 SLP268 T00390017

More Conditions Fewer Conditions

10-Day Weather Forecast

Almanac

Astronomy

Dec. 21, 2014 Rise Set
Actual Time
Civil Twilight
Nautical Twilight
Astronomical Twilight
Moon
Length of Visible Light
Length of Day
Tomorrow will be .
, % of the Moon is Illuminated

Today's Extremes

State Highs State Lows

Community

WunderPhotos

Upload Photos

1,779,528 photos uploaded!

WunderBlogs® & News

Nearby

Air Quality

  Air Quality AQ Index Pollutant
Not available.

Snow Depth

Station Depth Elevation

Earthquake Activity

City Distance Mag. Time & Date
Minimum magnitude displayed is 2.5.

Coastal Water Temperatures

Place Temperature

Nearby Weather Stations